createdAt,value
2022-08-01T00:00:06.393Z,76.48
2022-08-01T00:02:40.847Z,77.70
2022-08-01T00:05:09.205Z,78.74
2022-08-01T00:07:36.618Z,75.92
2022-08-01T00:10:09.547Z,73.47
2022-08-01T00:12:36.460Z,73.09
2022-08-01T00:15:04.201Z,70.07
2022-08-01T00:17:30.903Z,67.19
2022-08-01T00:19:57.603Z,69.67
2022-08-01T00:22:24.320Z,70.67
2022-08-01T00:24:51.110Z,71.48
2022-08-01T00:27:17.840Z,71.71
2022-08-01T00:30:10.754Z,72.64
2022-08-01T00:32:32.675Z,70.61
2022-08-01T00:34:59.361Z,67.57
2022-08-01T00:37:26.257Z,66.51
2022-08-01T00:39:52.996Z,65.29
2022-08-01T00:42:19.685Z,64.17
2022-08-01T00:44:46.707Z,63.42
2022-08-01T00:47:13.318Z,63.56
2022-08-01T00:49:40.112Z,62.12
2022-08-01T00:52:07.712Z,60.89
2022-08-01T00:54:34.935Z,58.98
2022-08-01T00:57:01.758Z,59.95
2022-08-01T00:59:29.092Z,60.44
2022-08-01T01:01:56.167Z,61.41
2022-08-01T01:04:23.721Z,60.03
2022-08-01T01:07:22.532Z,59.58
2022-08-01T01:10:01.738Z,58.44
2022-08-01T01:12:53.137Z,58.72
2022-08-01T01:15:32.173Z,58.17
2022-08-01T01:18:03.801Z,58.92
2022-08-01T01:20:38.337Z,59.07
2022-08-01T01:23:39.105Z,58.49
2022-08-01T01:26:42.163Z,58.02
2022-08-01T01:29:18.733Z,57.41
2022-08-01T01:32:03.026Z,58.27
2022-08-01T01:34:33.425Z,58.75
2022-08-01T01:37:02.813Z,58.69
2022-08-01T01:39:31.943Z,57.41
2022-08-01T01:41:59.703Z,58.66
2022-08-01T01:44:28.196Z,58.07
2022-08-01T01:46:57.313Z,57.96
2022-08-01T01:49:26.874Z,57.33
2022-08-01T01:52:02.968Z,58.69
2022-08-01T01:54:33.939Z,58.84
2022-08-01T01:57:02.930Z,58.90
2022-08-01T01:59:32.953Z,59.00
2022-08-01T02:02:06.430Z,60.74
2022-08-01T02:04:36.314Z,59.24
2022-08-01T02:07:04.258Z,59.55
2022-08-01T02:09:33.095Z,59.51
2022-08-01T02:12:08.615Z,60.82
2022-08-01T02:14:36.835Z,60.50
2022-08-01T02:17:05.361Z,62.38
2022-08-01T02:19:37.834Z,62.57
2022-08-01T02:22:30.492Z,63.28
2022-08-01T02:25:20.730Z,65.43
2022-08-01T02:27:55.670Z,64.84
2022-08-01T02:30:25.780Z,65.37
2022-08-01T02:32:57.916Z,65.75
2022-08-01T02:35:28.758Z,66.55
2022-08-01T02:37:58.666Z,67.19
2022-08-01T02:40:28.581Z,68.06
2022-08-01T02:42:57.424Z,68.16
2022-08-01T02:45:27.075Z,69.44
2022-08-01T02:48:00.227Z,68.91
2022-08-01T02:50:29.583Z,69.38
2022-08-01T02:52:57.961Z,68.91
2022-08-01T02:55:26.500Z,69.77
2022-08-01T02:57:56.849Z,70.18
2022-08-01T03:00:28.918Z,69.93
2022-08-01T03:02:58.082Z,69.34
2022-08-01T03:05:26.581Z,68.92
2022-08-01T03:07:54.958Z,66.92
2022-08-01T03:10:23.868Z,66.62
2022-08-01T03:12:51.979Z,65.28
2022-08-01T03:15:20.372Z,62.37
2022-08-01T03:17:49.507Z,59.55
2022-08-01T03:20:19.461Z,58.58
2022-08-01T03:22:48.528Z,57.26
2022-08-01T03:25:17.575Z,55.08
2022-08-01T03:27:49.243Z,54.88
2022-08-01T03:30:16.620Z,54.81
2022-08-01T03:32:43.625Z,53.97
2022-08-01T03:35:10.586Z,54.52
2022-08-01T03:38:13.514Z,54.68
2022-08-01T03:40:44.384Z,53.63
2022-08-01T03:43:18.206Z,53.45
2022-08-01T03:45:50.675Z,54.85
2022-08-01T03:48:20.034Z,53.10
2022-08-01T03:50:52.559Z,53.52
2022-08-01T03:53:27.079Z,51.34
2022-08-01T03:55:55.283Z,51.50
2022-08-01T03:58:23.049Z,50.83
2022-08-01T04:00:50.291Z,51.45
2022-08-01T04:03:17.950Z,50.53
2022-08-01T04:05:44.730Z,50.09
2022-08-01T04:08:11.780Z,49.96
2022-08-01T04:10:39.178Z,49.17
2022-08-01T04:13:05.841Z,48.59
2022-08-01T04:15:32.892Z,48.63
2022-08-01T04:17:59.798Z,47.61
2022-08-01T04:20:26.635Z,47.63
2022-08-01T04:22:53.429Z,48.63
2022-08-01T04:25:28.085Z,47.41
2022-08-01T04:27:55.997Z,48.85
2022-08-01T04:30:28.150Z,45.86
2022-08-01T04:32:58.674Z,45.89
2022-08-01T04:36:03.653Z,46.24
2022-08-01T04:38:18.132Z,46.35
2022-08-01T04:40:49.041Z,45.97
2022-08-01T04:43:15.826Z,46.40
2022-08-01T04:45:44.828Z,47.62
2022-08-01T04:48:12.594Z,46.90
2022-08-01T04:50:39.501Z,46.69
2022-08-01T04:53:06.383Z,45.55
2022-08-01T04:55:33.044Z,45.67
2022-08-01T04:57:59.764Z,47.18
2022-08-01T05:00:27.152Z,44.90
2022-08-01T05:02:53.793Z,46.21
2022-08-01T05:05:22.007Z,45.87
2022-08-01T05:07:48.824Z,44.98
2022-08-01T05:10:15.494Z,45.41
2022-08-01T05:12:42.185Z,48.10
2022-08-01T05:15:15.115Z,48.83
2022-08-01T05:17:45.055Z,50.13
2022-08-01T05:20:13.248Z,49.29
2022-08-01T05:22:40.337Z,49.44
2022-08-01T05:25:07.953Z,49.65
2022-08-01T05:27:39.432Z,48.46
2022-08-01T05:30:10.002Z,50.89
2022-08-01T05:32:37.843Z,52.66
2022-08-01T05:35:05.925Z,51.04
2022-08-01T05:37:32.662Z,51.77
2022-08-01T05:39:59.477Z,54.28
2022-08-01T05:42:26.537Z,52.39
2022-08-01T05:44:53.519Z,51.38
2022-08-01T05:47:20.433Z,50.11
2022-08-01T05:49:47.658Z,46.33
2022-08-01T05:52:14.465Z,46.16
2022-08-01T05:54:41.472Z,48.60
2022-08-01T05:57:08.135Z,44.22
2022-08-01T05:59:34.906Z,43.86
2022-08-01T06:02:02.280Z,47.00
2022-08-01T06:04:29.081Z,44.04
2022-08-01T06:06:55.773Z,43.70
2022-08-01T06:09:22.684Z,44.28
2022-08-01T06:11:49.392Z,45.94
2022-08-01T06:14:16.130Z,41.55
2022-08-01T06:16:42.840Z,43.77
2022-08-01T06:19:09.495Z,40.33
2022-08-01T06:21:36.227Z,44.47
2022-08-01T06:24:03.079Z,43.37
2022-08-01T06:26:29.782Z,43.00
2022-08-01T06:28:56.532Z,44.27
2022-08-01T06:31:23.178Z,40.57
2022-08-01T06:33:49.883Z,39.82
2022-08-01T06:36:16.585Z,41.66
2022-08-01T06:38:43.369Z,38.50
2022-08-01T06:41:10.070Z,39.14
2022-08-01T06:43:36.760Z,41.59
2022-08-01T06:46:03.592Z,37.92
2022-08-01T06:48:30.252Z,39.38
2022-08-01T06:51:09.130Z,36.67
2022-08-01T06:53:37.589Z,36.33
2022-08-01T06:56:05.390Z,39.32
2022-08-01T06:58:32.331Z,36.10
2022-08-01T07:00:59.560Z,38.87
2022-08-01T07:03:53.180Z,36.52
2022-08-01T07:06:14.027Z,34.67
2022-08-01T07:08:41.864Z,36.54
2022-08-01T07:11:08.866Z,36.08
2022-08-01T07:13:36.828Z,35.49
2022-08-01T07:16:10.808Z,34.70
2022-08-01T07:18:37.593Z,34.46
2022-08-01T07:21:04.938Z,37.14
2022-08-01T07:23:34.033Z,36.36
2022-08-01T07:26:05.134Z,36.01
2022-08-01T07:28:32.107Z,36.47
2022-08-01T07:30:58.822Z,34.94
2022-08-01T07:33:25.566Z,33.00
2022-08-01T07:35:52.303Z,36.38
2022-08-01T07:38:19.015Z,35.33
2022-08-01T07:40:45.871Z,32.82
2022-08-01T07:43:12.588Z,34.44
2022-08-01T07:45:39.422Z,34.57
2022-08-01T07:48:13.324Z,36.35
2022-08-01T07:50:40.002Z,33.61
2022-08-01T07:53:06.779Z,34.30
2022-08-01T07:55:33.448Z,34.61
2022-08-01T07:58:00.146Z,36.96
2022-08-01T08:00:28.686Z,35.04
2022-08-01T08:02:55.913Z,34.24
2022-08-01T08:05:57.982Z,35.00
2022-08-01T08:08:11.301Z,33.11
2022-08-01T08:10:39.239Z,34.71
2022-08-01T08:13:08.219Z,32.91
2022-08-01T08:15:35.642Z,34.07
2022-08-01T08:18:04.407Z,33.63
2022-08-01T08:20:31.275Z,32.81
2022-08-01T08:22:59.649Z,34.23
2022-08-01T08:25:26.971Z,33.44
2022-08-01T08:27:54.075Z,33.66
2022-08-01T08:30:21.774Z,34.48
2022-08-01T08:32:48.979Z,31.95
2022-08-01T08:35:22.952Z,31.92
2022-08-01T08:38:02.629Z,32.15
2022-08-01T08:40:31.811Z,32.45
2022-08-01T08:43:01.812Z,32.41
2022-08-01T08:45:52.175Z,32.90
2022-08-01T08:48:16.762Z,31.42
2022-08-01T08:50:48.282Z,30.92
2022-08-01T08:53:18.602Z,30.47
2022-08-01T08:55:56.059Z,31.92
2022-08-01T08:58:30.524Z,31.94
2022-08-01T09:00:59.179Z,31.97
2022-08-01T09:03:26.103Z,31.92
2022-08-01T09:05:52.922Z,32.84
2022-08-01T09:08:19.674Z,31.43
2022-08-01T09:10:46.330Z,33.49
2022-08-01T09:13:15.500Z,35.20
2022-08-01T09:15:46.774Z,30.63
2022-08-01T09:18:33.105Z,30.34
2022-08-01T09:21:22.390Z,32.21
2022-08-01T09:23:54.929Z,30.80
2022-08-01T09:26:33.939Z,32.55
2022-08-01T09:29:04.878Z,31.54
2022-08-01T09:31:47.750Z,30.98
2022-08-01T09:34:16.118Z,32.87
2022-08-01T09:36:52.274Z,30.33
2022-08-01T09:39:24.328Z,31.48
2022-08-01T09:41:51.501Z,32.22
2022-08-01T09:44:54.643Z,33.25
2022-08-01T09:47:23.902Z,31.56
2022-08-01T09:49:59.312Z,32.30
2022-08-01T09:52:29.281Z,31.53
2022-08-01T09:55:06.503Z,30.63
2022-08-01T09:57:33.448Z,28.96
2022-08-01T10:00:02.386Z,29.93
2022-08-01T10:02:35.992Z,30.63
2022-08-01T10:05:09.247Z,30.07
2022-08-01T10:07:58.215Z,31.10
2022-08-01T10:10:28.697Z,30.77
2022-08-01T10:12:58.238Z,31.14
2022-08-01T10:15:36.994Z,30.92
2022-08-01T10:18:16.120Z,30.17
2022-08-01T10:20:49.037Z,30.79
2022-08-01T10:23:16.681Z,30.38
2022-08-01T10:25:47.278Z,30.75
2022-08-01T10:28:23.651Z,30.83
2022-08-01T10:30:52.092Z,30.58
2022-08-01T10:33:50.690Z,29.48
2022-08-01T10:36:11.018Z,29.62
2022-08-01T10:38:38.150Z,32.03
2022-08-01T10:41:08.917Z,29.71
2022-08-01T10:43:36.520Z,29.94
2022-08-01T10:46:06.831Z,30.10
2022-08-01T10:48:48.613Z,30.95
2022-08-01T10:51:18.293Z,30.21
2022-08-01T10:53:54.866Z,31.23
2022-08-01T10:56:26.466Z,30.47
2022-08-01T10:59:06.471Z,30.70
2022-08-01T11:01:38.733Z,28.92
2022-08-01T11:04:17.775Z,29.67
2022-08-01T11:06:50.162Z,29.03
2022-08-01T11:09:36.800Z,28.72
2022-08-01T11:12:23.307Z,29.36
2022-08-01T11:15:02.326Z,29.64
2022-08-01T11:17:49.688Z,29.45
2022-08-01T11:20:31.077Z,30.10
2022-08-01T11:23:07.009Z,28.24
2022-08-01T11:26:05.422Z,29.37
2022-08-01T11:28:33.916Z,28.41
2022-08-01T11:31:11.080Z,28.84
2022-08-01T11:33:46.970Z,28.75
2022-08-01T11:36:17.065Z,28.41
2022-08-01T11:38:49.293Z,29.44
2022-08-01T11:41:38.010Z,29.55
2022-08-01T11:44:19.075Z,28.89
2022-08-01T11:46:56.711Z,27.81
2022-08-01T11:49:35.232Z,30.69
2022-08-01T11:52:04.927Z,29.15
2022-08-01T11:54:38.395Z,28.88
2022-08-01T11:57:11.324Z,28.14
2022-08-01T12:00:03.347Z,28.41
2022-08-01T12:02:35.601Z,28.08
2022-08-01T12:05:14.127Z,29.49
2022-08-01T12:07:43.393Z,28.77
2022-08-01T12:10:16.637Z,29.15
2022-08-01T12:13:02.927Z,29.45
2022-08-01T12:15:35.772Z,28.72
2022-08-01T12:18:05.757Z,28.86
2022-08-01T12:20:38.165Z,30.08
2022-08-01T12:23:09.494Z,28.38
2022-08-01T12:25:37.538Z,29.07
2022-08-01T12:28:07.172Z,28.56
2022-08-01T12:30:38.056Z,29.63
2022-08-01T12:33:07.177Z,28.06
2022-08-01T12:35:35.607Z,28.83
2022-08-01T12:38:05.160Z,28.30
2022-08-01T12:40:34.101Z,29.52
2022-08-01T12:43:06.202Z,29.71
2022-08-01T12:45:36.446Z,28.04
2022-08-01T12:48:08.461Z,28.95
2022-08-01T12:50:37.906Z,28.95
2022-08-01T12:53:04.788Z,29.03
2022-08-01T12:55:34.788Z,29.58
2022-08-01T12:58:15.820Z,29.68
2022-08-01T13:00:46.082Z,30.70
2022-08-01T13:03:16.075Z,30.28
2022-08-01T13:05:49.835Z,30.61
2022-08-01T13:08:21.639Z,30.87
2022-08-01T13:10:49.283Z,30.91
2022-08-01T13:13:22.104Z,30.85
2022-08-01T13:16:05.601Z,30.64
2022-08-01T13:18:34.396Z,30.48
2022-08-01T13:21:13.135Z,31.70
2022-08-01T13:24:02.129Z,30.52
2022-08-01T13:26:46.991Z,31.58
2022-08-01T13:29:15.756Z,30.74
2022-08-01T13:31:43.458Z,30.52
2022-08-01T13:34:10.542Z,30.77
2022-08-01T13:36:38.272Z,31.33
2022-08-01T13:39:24.876Z,31.19
2022-08-01T13:41:53.080Z,32.06
2022-08-01T13:44:19.824Z,31.03
2022-08-01T13:46:49.627Z,30.82
2022-08-01T13:49:19.020Z,30.99
2022-08-01T13:51:47.577Z,31.56
2022-08-01T13:54:14.763Z,31.82
2022-08-01T13:56:41.603Z,31.57
2022-08-01T13:59:08.830Z,32.84
2022-08-01T14:01:36.026Z,32.16
2022-08-01T14:04:03.626Z,32.08
2022-08-01T14:06:30.838Z,32.10
2022-08-01T14:08:57.856Z,32.50
2022-08-01T14:11:24.847Z,32.27
2022-08-01T14:13:57.417Z,32.49
2022-08-01T14:16:24.367Z,33.12
2022-08-01T14:18:51.219Z,31.69
2022-08-01T14:21:18.522Z,32.79
2022-08-01T14:23:45.316Z,31.43
2022-08-01T14:26:12.670Z,32.25
2022-08-01T14:28:41.400Z,32.29
2022-08-01T14:31:08.941Z,31.97
2022-08-01T14:33:35.933Z,33.31
2022-08-01T14:36:29.686Z,31.93
2022-08-01T14:38:50.427Z,32.89
2022-08-01T14:41:17.311Z,33.82
2022-08-01T14:43:44.365Z,34.48
2022-08-01T14:46:12.530Z,33.55
2022-08-01T14:48:39.555Z,34.57
2022-08-01T14:51:08.224Z,34.46
2022-08-01T14:53:36.753Z,32.75
2022-08-01T14:56:07.050Z,33.70
2022-08-01T14:58:34.424Z,33.95
2022-08-01T15:01:01.792Z,33.41
2022-08-01T15:03:28.724Z,34.43
2022-08-01T15:05:55.638Z,33.87
2022-08-01T15:08:22.252Z,34.85
2022-08-01T15:10:48.977Z,34.94
2022-08-01T15:13:15.799Z,33.61
2022-08-01T15:15:42.583Z,34.11
2022-08-01T15:18:09.291Z,33.82
2022-08-01T15:20:35.978Z,34.79
2022-08-01T15:23:02.699Z,34.00
2022-08-01T15:25:40.753Z,34.67
2022-08-01T15:28:12.604Z,34.69
2022-08-01T15:30:40.280Z,34.15
2022-08-01T15:33:07.824Z,33.60
2022-08-01T15:35:34.733Z,33.71
2022-08-01T15:38:01.471Z,34.58
2022-08-01T15:40:29.405Z,34.84
2022-08-01T15:42:56.440Z,35.78
2022-08-01T15:45:46.307Z,34.30
2022-08-01T15:48:10.394Z,34.18
2022-08-01T15:50:39.298Z,35.47
2022-08-01T15:53:07.460Z,34.89
2022-08-01T15:55:38.464Z,35.01
2022-08-01T15:58:06.139Z,34.79
2022-08-01T16:00:38.932Z,35.60
2022-08-01T16:03:08.471Z,34.69
2022-08-01T16:05:40.999Z,35.65
2022-08-01T16:08:12.133Z,35.21
2022-08-01T16:10:39.110Z,34.95
2022-08-01T16:13:07.402Z,34.84
2022-08-01T16:15:36.683Z,35.13
2022-08-01T16:18:05.567Z,36.07
2022-08-01T16:20:32.628Z,35.37
2022-08-01T16:22:59.317Z,35.85
2022-08-01T16:25:25.996Z,36.25
2022-08-01T16:27:53.044Z,35.43
2022-08-01T16:30:19.764Z,36.36
2022-08-01T16:32:54.319Z,36.06
2022-08-01T16:35:24.592Z,36.33
2022-08-01T16:37:59.454Z,36.59
2022-08-01T16:40:26.198Z,36.34
2022-08-01T16:42:53.048Z,37.41
2022-08-01T16:45:25.166Z,37.02
2022-08-01T16:47:51.926Z,36.45
2022-08-01T16:50:18.757Z,36.62
2022-08-01T16:52:54.694Z,36.48
2022-08-01T16:55:23.305Z,37.09
2022-08-01T16:57:51.403Z,37.08
2022-08-01T17:00:21.338Z,37.30
2022-08-01T17:02:48.756Z,36.98
2022-08-01T17:05:15.621Z,37.28
2022-08-01T17:07:42.332Z,38.11
2022-08-01T17:10:09.977Z,37.61
2022-08-01T17:12:36.713Z,37.93
2022-08-01T17:15:04.187Z,37.53
2022-08-01T17:17:30.859Z,37.45
2022-08-01T17:19:57.555Z,38.55
2022-08-01T17:22:24.234Z,37.91
2022-08-01T17:24:52.106Z,38.52
2022-08-01T17:27:19.417Z,38.45
2022-08-01T17:29:46.701Z,38.27
2022-08-01T17:32:14.342Z,39.03
2022-08-01T17:34:42.484Z,38.56
2022-08-01T17:37:10.405Z,38.68
2022-08-01T17:39:39.210Z,39.82
2022-08-01T17:42:07.758Z,39.62
2022-08-01T17:44:34.625Z,39.27
2022-08-01T17:47:01.364Z,40.85
2022-08-01T17:49:52.241Z,40.21
2022-08-01T17:52:14.851Z,40.11
2022-08-01T17:54:41.743Z,40.43
2022-08-01T17:57:10.409Z,40.40
2022-08-01T17:59:37.367Z,40.79
2022-08-01T18:02:04.497Z,41.24
2022-08-01T18:04:34.087Z,41.11
2022-08-01T18:07:01.893Z,41.54
2022-08-01T18:09:33.900Z,40.76
2022-08-01T18:12:10.603Z,40.69
2022-08-01T18:14:40.826Z,41.06
2022-08-01T18:17:11.161Z,41.00
2022-08-01T18:19:38.999Z,41.48
2022-08-01T18:22:28.915Z,41.23
2022-08-01T18:24:53.463Z,41.52
2022-08-01T18:27:20.228Z,40.78
2022-08-01T18:29:48.398Z,41.14
2022-08-01T18:32:15.758Z,41.11
2022-08-01T18:34:42.509Z,41.28
2022-08-01T18:37:12.704Z,40.72
2022-08-01T18:39:41.547Z,40.47
2022-08-01T18:42:12.384Z,40.40
2022-08-01T18:44:39.147Z,40.87
2022-08-01T18:47:06.007Z,41.21
2022-08-01T18:49:33.162Z,42.08
2022-08-01T18:51:59.893Z,41.75
2022-08-01T18:54:27.495Z,42.33
2022-08-01T18:56:54.279Z,42.48
2022-08-01T18:59:21.708Z,41.84
2022-08-01T19:01:48.599Z,41.96
2022-08-01T19:04:15.324Z,41.53
2022-08-01T19:06:42.522Z,42.20
2022-08-01T19:09:09.337Z,42.19
2022-08-01T19:11:36.634Z,41.97
2022-08-01T19:14:03.856Z,42.48
2022-08-01T19:16:30.982Z,42.79
2022-08-01T19:18:58.497Z,42.56
2022-08-01T19:21:25.365Z,42.92
2022-08-01T19:24:12.982Z,42.31
2022-08-01T19:26:40.493Z,43.23
2022-08-01T19:29:17.456Z,43.33
2022-08-01T19:31:48.824Z,42.88
2022-08-01T19:34:18.489Z,42.94
2022-08-01T19:36:49.522Z,43.10
2022-08-01T19:39:19.048Z,43.62
2022-08-01T19:41:48.428Z,43.03
2022-08-01T19:44:17.226Z,43.01
2022-08-01T19:46:44.756Z,43.24
2022-08-01T19:49:16.438Z,44.24
2022-08-01T19:51:48.566Z,44.13
2022-08-01T19:54:18.021Z,45.25
2022-08-01T19:56:47.867Z,43.12
2022-08-01T19:59:21.633Z,43.60
2022-08-01T20:01:50.245Z,44.00
2022-08-01T20:04:18.184Z,44.17
2022-08-01T20:06:45.512Z,43.49
2022-08-01T20:09:16.074Z,44.27
2022-08-01T20:11:49.297Z,44.35
2022-08-01T20:14:25.433Z,43.91
2022-08-01T20:16:54.696Z,44.42
2022-08-01T20:19:24.485Z,44.69
2022-08-01T20:22:03.329Z,45.12
2022-08-01T20:24:46.102Z,44.63
2022-08-01T20:27:15.711Z,44.68
2022-08-01T20:29:45.171Z,45.40
2022-08-01T20:32:13.102Z,44.95
2022-08-01T20:34:39.919Z,44.61
2022-08-01T20:37:13.185Z,45.66
2022-08-01T20:39:43.213Z,45.74
2022-08-01T20:42:11.154Z,45.39
2022-08-01T20:44:39.429Z,45.33
2022-08-01T20:47:06.269Z,45.53
2022-08-01T20:49:36.046Z,45.65
2022-08-01T20:52:11.799Z,45.92
2022-08-01T20:54:41.648Z,45.39
2022-08-01T20:57:25.467Z,45.27
2022-08-01T21:00:02.107Z,45.62
2022-08-01T21:02:31.792Z,45.24
2022-08-01T21:05:04.812Z,45.14
2022-08-01T21:07:45.671Z,45.22
2022-08-01T21:10:15.625Z,46.32
2022-08-01T21:12:43.973Z,45.37
2022-08-01T21:15:33.454Z,45.92
2022-08-01T21:18:25.952Z,45.46
2022-08-01T21:21:02.071Z,45.50
2022-08-01T21:23:40.304Z,44.99
2022-08-01T21:26:12.247Z,45.71
2022-08-01T21:28:40.799Z,45.65
2022-08-01T21:31:21.728Z,45.14
2022-08-01T21:34:02.414Z,45.21
2022-08-01T21:36:31.972Z,45.39
2022-08-01T21:38:59.780Z,45.66
2022-08-01T21:42:01.313Z,45.81
2022-08-01T21:44:16.618Z,45.61
2022-08-01T21:46:44.408Z,45.64
2022-08-01T21:49:12.782Z,46.21
2022-08-01T21:51:56.338Z,45.64
2022-08-01T21:54:39.993Z,45.64
2022-08-01T21:57:39.610Z,45.53
2022-08-01T22:00:24.958Z,45.35
2022-08-01T22:03:26.059Z,45.81
2022-08-01T22:05:54.793Z,45.14
2022-08-01T22:08:32.148Z,46.48
2022-08-01T22:11:03.651Z,46.74
2022-08-01T22:13:30.646Z,46.51
2022-08-01T22:15:58.014Z,46.83
2022-08-01T22:18:26.900Z,46.98
2022-08-01T22:20:54.360Z,47.30
2022-08-01T22:23:23.144Z,48.29
2022-08-01T22:25:54.233Z,47.98
2022-08-01T22:28:22.442Z,47.56
2022-08-01T22:30:51.402Z,47.79
2022-08-01T22:33:19.182Z,47.96
2022-08-01T22:35:51.151Z,48.82
2022-08-01T22:38:19.649Z,48.28
2022-08-01T22:40:55.709Z,48.06
2022-08-01T22:43:26.561Z,48.49
2022-08-01T22:46:27.229Z,48.79
2022-08-01T22:48:58.889Z,49.20
2022-08-01T22:51:54.570Z,48.89
2022-08-01T22:54:36.593Z,49.25
2022-08-01T22:57:10.492Z,49.60
2022-08-01T23:00:03.801Z,49.62
2022-08-01T23:02:33.114Z,49.03
2022-08-01T23:05:08.301Z,49.42
2022-08-01T23:07:40.114Z,49.45
2022-08-01T23:10:08.112Z,49.22
2022-08-01T23:12:35.521Z,49.66
2022-08-01T23:15:02.417Z,49.76
2022-08-01T23:17:31.156Z,49.63
2022-08-01T23:20:03.573Z,50.38
2022-08-01T23:22:32.354Z,49.76
2022-08-01T23:25:04.364Z,50.29
2022-08-01T23:28:04.472Z,49.52
2022-08-01T23:30:30.360Z,49.30
2022-08-01T23:32:57.188Z,49.80
2022-08-01T23:35:24.626Z,49.97
2022-08-01T23:37:52.189Z,50.16
2022-08-01T23:40:20.241Z,49.82
2022-08-01T23:42:46.975Z,50.02
2022-08-01T23:45:13.753Z,50.42
2022-08-01T23:47:40.694Z,50.22
2022-08-01T23:50:08.188Z,50.01
2022-08-01T23:52:36.815Z,49.89
2022-08-01T23:55:15.692Z,49.75
2022-08-01T23:57:43.536Z,50.33
